CLT weather

Charlotte Douglas International Airport
Charlotte, North Carolina, United States

Public forecast

Using degrees Fahrenheit for public forecast. Weather courtesy of forecast.io.

Current aviation weather report (METAR) for Charlotte Douglas International Airport

Retrieved 2019/10/23 00:52 UTC (19 minutes ago):

KCLT 230052Z 32005KT 10SM FEW070 BKN250 18/08 A2993 RMK AO2 SLP129 T01780083

Aviation forecast (TAF) for Charlotte Douglas International Airport

Retrieved 2019-10-23 00:24 UTC (47 minutes ago):

TAF KCLT 222323Z 2300/2406 28006KT P6SM SCT250 FM230700 31005KT P6SM SKC FM231400 34007KT P6SM SKC FM240000 36003KT P6SM FEW250